createdAt,value
2019-05-09T00:01:03.835Z,10.40
2019-05-09T00:03:36.225Z,10.30
2019-05-09T00:06:09.302Z,10.30
2019-05-09T00:08:47.010Z,10.20
2019-05-09T00:11:25.230Z,10.20
2019-05-09T00:13:59.700Z,10.20
2019-05-09T00:16:30.414Z,10.20
2019-05-09T00:19:03.537Z,10.20
2019-05-09T00:21:41.009Z,10.10
2019-05-09T00:24:17.689Z,10.10
2019-05-09T00:26:53.372Z,10.10
2019-05-09T00:29:46.002Z,10.10
2019-05-09T00:32:43.198Z,10.00
2019-05-09T00:35:44.247Z,10.00
2019-05-09T00:38:33.245Z,10.00
2019-05-09T00:44:48.182Z,10.00
2019-05-09T00:47:34.135Z,9.90
2019-05-09T00:50:36.783Z,9.80
2019-05-09T00:53:10.595Z,9.80
2019-05-09T00:55:57.997Z,9.80
2019-05-09T00:58:33.337Z,9.70
2019-05-09T01:01:08.436Z,9.70
2019-05-09T01:03:53.897Z,9.70
2019-05-09T01:06:34.153Z,9.70
2019-05-09T01:09:07.814Z,9.70
2019-05-09T01:11:44.156Z,9.70
2019-05-09T01:14:16.275Z,9.60
2019-05-09T01:16:53.674Z,9.60
2019-05-09T01:19:29.418Z,9.50
2019-05-09T01:22:17.429Z,9.50
2019-05-09T01:25:36.754Z,9.50
2019-05-09T01:28:10.720Z,9.50
2019-05-09T01:30:45.285Z,9.50
2019-05-09T01:33:43.961Z,9.50
2019-05-09T01:36:14.445Z,9.50
2019-05-09T01:38:56.551Z,9.60
2019-05-09T01:41:50.399Z,9.60
2019-05-09T01:44:41.440Z,9.60
2019-05-09T01:47:28.108Z,9.50
2019-05-09T01:50:03.736Z,9.50
2019-05-09T01:52:47.129Z,9.60
2019-05-09T01:55:23.529Z,9.70
2019-05-09T01:58:09.948Z,9.70
2019-05-09T02:00:43.572Z,9.70
2019-05-09T02:03:20.601Z,9.70
2019-05-09T02:05:53.171Z,9.80
2019-05-09T02:08:50.489Z,9.80
2019-05-09T02:11:39.276Z,9.80
2019-05-09T02:14:04.113Z,9.80
2019-05-09T02:16:53.810Z,9.80
2019-05-09T02:19:48.279Z,9.80
2019-05-09T02:22:45.672Z,9.70
2019-05-09T02:25:24.184Z,9.70
2019-05-09T02:27:55.288Z,9.60
2019-05-09T02:30:30.820Z,9.60
2019-05-09T02:33:17.810Z,9.60
2019-05-09T02:35:57.411Z,9.50
2019-05-09T02:39:04.192Z,9.50
2019-05-09T02:42:00.886Z,9.50
2019-05-09T02:44:39.354Z,9.40
2019-05-09T02:47:28.938Z,9.30
2019-05-09T02:50:19.481Z,9.30
2019-05-09T02:52:59.776Z,9.30
2019-05-09T02:55:49.544Z,9.20
2019-05-09T02:58:52.443Z,9.20
2019-05-09T03:01:44.315Z,9.20
2019-05-09T03:04:22.522Z,9.20
2019-05-09T03:07:03.700Z,9.20
2019-05-09T03:09:49.979Z,9.20
2019-05-09T03:15:40.521Z,9.30
2019-05-09T03:18:45.092Z,9.30
2019-05-09T03:21:41.642Z,9.40
2019-05-09T03:24:18.496Z,9.40
2019-05-09T03:26:59.545Z,9.40
2019-05-09T03:29:59.051Z,9.40
2019-05-09T03:32:39.623Z,9.50
2019-05-09T03:35:13.315Z,9.60
2019-05-09T03:38:08.167Z,9.70
2019-05-09T03:40:51.139Z,9.60
2019-05-09T03:43:35.071Z,9.60
2019-05-09T03:46:23.445Z,9.60
2019-05-09T03:49:12.667Z,9.60
2019-05-09T03:51:49.090Z,9.60
2019-05-09T03:54:22.300Z,9.60
2019-05-09T03:57:04.134Z,9.70
2019-05-09T03:59:38.092Z,9.70
2019-05-09T04:02:19.107Z,9.60
2019-05-09T04:04:57.723Z,9.70
2019-05-09T04:07:58.228Z,9.60
2019-05-09T04:10:32.039Z,9.60
2019-05-09T04:13:05.325Z,9.60
2019-05-09T04:15:47.736Z,9.70
2019-05-09T04:18:37.645Z,9.70
2019-05-09T04:21:19.095Z,9.80
2019-05-09T04:23:58.520Z,9.80
2019-05-09T04:26:41.635Z,9.80
2019-05-09T04:29:12.972Z,9.80
2019-05-09T04:32:07.784Z,9.90
2019-05-09T04:34:50.989Z,9.90
2019-05-09T04:37:25.654Z,10.00
2019-05-09T04:40:03.038Z,10.00
2019-05-09T04:42:34.990Z,10.00
2019-05-09T04:45:17.701Z,10.10
2019-05-09T04:47:48.429Z,10.00
2019-05-09T04:50:24.841Z,10.10
2019-05-09T04:52:54.518Z,10.10
2019-05-09T04:55:28.125Z,10.20
2019-05-09T04:58:00.184Z,10.20
2019-05-09T05:00:51.186Z,10.30
2019-05-09T05:03:21.648Z,10.30
2019-05-09T05:06:00.418Z,10.40
2019-05-09T05:08:45.328Z,10.40
2019-05-09T05:11:18.583Z,10.40
2019-05-09T05:14:38.537Z,10.50
2019-05-09T05:17:11.498Z,10.40
2019-05-09T05:19:52.819Z,10.50
2019-05-09T05:22:50.236Z,10.50
2019-05-09T05:25:38.199Z,10.60
2019-05-09T05:28:38.208Z,10.70
2019-05-09T05:31:09.182Z,10.80
2019-05-09T05:33:52.958Z,10.90
2019-05-09T05:36:20.821Z,11.00
2019-05-09T05:38:53.606Z,11.10
2019-05-09T05:41:24.635Z,11.10
2019-05-09T05:44:03.330Z,11.10
2019-05-09T05:46:52.623Z,11.10
2019-05-09T05:49:28.323Z,11.10
2019-05-09T05:51:58.746Z,11.10
2019-05-09T05:54:29.434Z,11.20
2019-05-09T05:57:02.080Z,11.40
2019-05-09T05:59:37.090Z,11.50
2019-05-09T06:02:08.334Z,12.10
2019-05-09T06:04:38.613Z,13.10
2019-05-09T06:07:10.130Z,13.50
2019-05-09T06:09:42.295Z,13.90
2019-05-09T06:12:14.264Z,14.20
2019-05-09T06:14:48.007Z,14.20
2019-05-09T06:17:18.154Z,14.20
2019-05-09T06:19:49.216Z,14.40
2019-05-09T06:22:19.587Z,14.80
2019-05-09T06:24:52.621Z,14.90
2019-05-09T06:27:24.491Z,15.40
2019-05-09T06:30:03.386Z,15.60
2019-05-09T06:32:49.518Z,15.60
2019-05-09T06:35:53.437Z,15.90
2019-05-09T06:38:33.724Z,15.90
2019-05-09T06:41:29.177Z,15.60
2019-05-09T06:44:14.275Z,15.20
2019-05-09T06:46:54.202Z,15.30
2019-05-09T06:49:33.846Z,16.10
2019-05-09T06:52:08.852Z,16.30
2019-05-09T06:54:54.258Z,16.20
2019-05-09T06:57:30.103Z,16.40
2019-05-09T07:00:05.883Z,16.60
2019-05-09T07:02:47.733Z,16.50
2019-05-09T07:05:57.541Z,15.90
2019-05-09T07:08:55.181Z,15.20
2019-05-09T07:11:30.690Z,15.00
2019-05-09T07:14:02.440Z,15.30
2019-05-09T07:16:37.662Z,14.90
2019-05-09T07:19:28.027Z,14.70
2019-05-09T07:22:28.520Z,14.60
2019-05-09T07:25:19.325Z,14.60
2019-05-09T07:27:58.669Z,14.70
2019-05-09T07:31:03.227Z,14.60
2019-05-09T07:33:38.332Z,14.40
2019-05-09T07:36:13.166Z,14.20
2019-05-09T07:38:50.708Z,14.10
2019-05-09T07:41:20.935Z,14.20
2019-05-09T07:43:53.719Z,14.20
2019-05-09T07:46:32.970Z,14.40
2019-05-09T07:49:12.742Z,15.00
2019-05-09T07:51:43.803Z,14.80
2019-05-09T07:54:37.710Z,14.70
2019-05-09T07:57:47.057Z,14.60
2019-05-09T08:00:14.261Z,15.00
2019-05-09T08:02:47.722Z,15.10
2019-05-09T08:05:27.980Z,15.00
2019-05-09T08:08:03.099Z,14.70
2019-05-09T08:10:33.565Z,14.50
2019-05-09T08:13:11.961Z,14.40
2019-05-09T08:15:58.542Z,14.30
2019-05-09T08:18:34.983Z,14.30
2019-05-09T08:21:13.227Z,14.10
2019-05-09T08:23:48.490Z,13.90
2019-05-09T08:26:33.640Z,13.90
2019-05-09T08:29:17.475Z,13.90
2019-05-09T08:34:14.731Z,13.80
2019-05-09T08:36:48.325Z,13.80
2019-05-09T08:39:23.416Z,13.80
2019-05-09T08:41:54.871Z,13.70
2019-05-09T08:44:28.581Z,13.70
2019-05-09T08:46:59.766Z,13.80
2019-05-09T08:49:39.197Z,13.70
2019-05-09T08:52:16.430Z,13.80
2019-05-09T08:54:57.966Z,13.80
2019-05-09T08:57:30.075Z,14.00
2019-05-09T09:00:01.117Z,14.20
2019-05-09T09:02:45.397Z,14.10
2019-05-09T09:05:13.605Z,14.40
2019-05-09T09:07:48.381Z,14.40
2019-05-09T09:10:25.593Z,14.30
2019-05-09T09:12:59.511Z,14.20
2019-05-09T09:16:02.657Z,14.00
2019-05-09T09:18:09.796Z,14.00
2019-05-09T09:20:51.474Z,14.20
2019-05-09T09:23:39.797Z,14.20
2019-05-09T09:25:58.277Z,14.20
2019-05-09T09:28:32.712Z,14.20
2019-05-09T09:31:03.836Z,14.20
2019-05-09T09:33:37.734Z,14.30
2019-05-09T09:36:09.170Z,14.20
2019-05-09T09:38:40.786Z,14.40
2019-05-09T09:41:24.918Z,14.40
2019-05-09T09:43:58.239Z,14.30
2019-05-09T09:46:33.750Z,14.40
2019-05-09T09:49:08.083Z,14.20
2019-05-09T09:51:42.185Z,14.00
2019-05-09T09:54:21.644Z,14.00
2019-05-09T09:56:58.646Z,14.10
2019-05-09T09:59:48.548Z,14.10
2019-05-09T10:02:27.809Z,14.10
2019-05-09T10:05:03.579Z,13.90
2019-05-09T10:07:40.474Z,13.80
2019-05-09T10:10:13.903Z,13.90
2019-05-09T10:12:53.904Z,14.10
2019-05-09T10:15:33.406Z,14.10
2019-05-09T10:18:41.077Z,14.30
2019-05-09T10:21:21.784Z,14.40
2019-05-09T10:23:57.568Z,14.60
2019-05-09T10:26:32.753Z,14.70
2019-05-09T10:29:11.842Z,14.70
2019-05-09T10:31:44.591Z,14.80
2019-05-09T10:34:24.089Z,14.80
2019-05-09T10:36:55.594Z,14.90
2019-05-09T10:39:31.031Z,14.80
2019-05-09T10:42:09.307Z,15.00
2019-05-09T10:44:54.741Z,14.90
2019-05-09T10:47:32.175Z,14.90
2019-05-09T10:50:13.282Z,15.40
2019-05-09T10:52:58.406Z,15.60
2019-05-09T10:55:31.212Z,15.80
2019-05-09T10:58:08.369Z,15.90
2019-05-09T11:01:10.478Z,16.20
2019-05-09T11:03:53.738Z,16.00
2019-05-09T11:06:32.208Z,15.40
2019-05-09T11:09:10.247Z,15.30
2019-05-09T11:11:54.709Z,15.60
2019-05-09T11:14:36.990Z,15.70
2019-05-09T11:17:12.449Z,15.90
2019-05-09T11:20:14.411Z,16.00
2019-05-09T11:22:50.057Z,16.20
2019-05-09T11:25:23.148Z,15.90
2019-05-09T11:28:10.097Z,15.60
2019-05-09T11:30:41.408Z,15.50
2019-05-09T11:33:15.313Z,15.60
2019-05-09T11:35:49.004Z,15.80
2019-05-09T11:38:32.143Z,16.10
2019-05-09T11:41:08.179Z,16.60
2019-05-09T11:44:08.217Z,17.30
2019-05-09T11:46:41.191Z,17.80
2019-05-09T11:49:14.735Z,20.10
2019-05-09T11:52:04.615Z,20.30
2019-05-09T11:54:35.767Z,20.00
2019-05-09T11:57:10.547Z,20.20
2019-05-09T11:59:43.755Z,19.90
2019-05-09T12:05:11.091Z,18.10
2019-05-09T12:07:50.623Z,17.90
2019-05-09T12:10:25.083Z,17.80
2019-05-09T12:13:00.349Z,17.70
2019-05-09T12:15:35.491Z,17.30
2019-05-09T12:18:28.844Z,17.00
2019-05-09T12:21:02.345Z,16.60
2019-05-09T12:23:38.908Z,16.00
2019-05-09T12:26:17.750Z,16.20
2019-05-09T12:28:51.675Z,16.10
2019-05-09T12:31:30.901Z,16.30
2019-05-09T12:34:18.898Z,16.40
2019-05-09T12:36:52.343Z,16.40
2019-05-09T12:39:27.413Z,16.40
2019-05-09T12:42:19.323Z,16.30
2019-05-09T12:44:51.455Z,16.00
2019-05-09T12:47:34.777Z,16.00
2019-05-09T12:50:08.614Z,16.00
2019-05-09T12:53:04.721Z,15.90
2019-05-09T12:55:40.574Z,15.70
2019-05-09T12:58:31.172Z,15.70
2019-05-09T13:01:03.998Z,15.60
2019-05-09T13:03:43.065Z,15.50
2019-05-09T13:06:24.346Z,15.60
2019-05-09T13:09:14.023Z,15.80
2019-05-09T13:11:49.140Z,15.80
2019-05-09T13:14:29.749Z,15.90
2019-05-09T13:17:44.517Z,16.30
2019-05-09T13:20:18.157Z,16.70
2019-05-09T13:22:53.734Z,17.20
2019-05-09T13:25:32.418Z,17.70
2019-05-09T13:28:08.235Z,17.70
2019-05-09T13:30:44.522Z,17.80
2019-05-09T13:33:18.913Z,17.60
2019-05-09T13:35:54.257Z,17.30
2019-05-09T13:38:27.623Z,17.40
2019-05-09T13:40:58.628Z,17.10
2019-05-09T13:43:32.524Z,17.10
2019-05-09T13:46:03.278Z,17.10
2019-05-09T13:49:11.539Z,17.10
2019-05-09T13:55:01.901Z,17.30
2019-05-09T13:57:48.796Z,17.10
2019-05-09T14:00:28.447Z,16.90
2019-05-09T14:03:07.885Z,16.80
2019-05-09T14:09:38.585Z,16.70
2019-05-09T14:13:19.375Z,16.60
2019-05-09T14:15:57.482Z,16.30
2019-05-09T14:21:37.212Z,16.10
2019-05-09T14:24:54.352Z,16.10
2019-05-09T14:28:18.446Z,16.10
2019-05-09T14:30:59.427Z,16.20
2019-05-09T14:34:08.550Z,16.50
2019-05-09T14:36:46.071Z,16.50
2019-05-09T14:45:28.112Z,16.80
2019-05-09T14:48:00.387Z,16.90
2019-05-09T14:50:34.253Z,16.90
2019-05-09T14:53:08.770Z,16.80
2019-05-09T14:55:43.244Z,16.80
2019-05-09T14:58:23.515Z,16.70
2019-05-09T15:01:05.454Z,16.70
2019-05-09T15:03:39.059Z,16.60
2019-05-09T15:06:23.683Z,16.50
2019-05-09T15:09:00.195Z,16.30
2019-05-09T15:11:33.626Z,16.20
2019-05-09T15:14:03.990Z,15.90
2019-05-09T15:16:34.930Z,16.00
2019-05-09T15:19:08.658Z,16.30
2019-05-09T15:21:43.675Z,16.50
2019-05-09T15:24:15.652Z,16.90
2019-05-09T15:26:47.901Z,17.10
2019-05-09T15:29:18.638Z,17.00
2019-05-09T15:32:03.258Z,16.90
2019-05-09T15:34:30.887Z,16.60
2019-05-09T15:37:08.817Z,16.50
2019-05-09T15:39:38.058Z,16.40
2019-05-09T15:42:24.728Z,16.40
2019-05-09T15:44:58.805Z,16.50
2019-05-09T15:47:37.637Z,16.50
2019-05-09T15:50:22.530Z,16.50
2019-05-09T15:52:54.613Z,16.50
2019-05-09T15:55:36.328Z,16.40
2019-05-09T15:58:13.682Z,16.40
2019-05-09T16:00:44.191Z,16.40
2019-05-09T16:03:14.688Z,16.40
2019-05-09T16:05:47.856Z,16.50
2019-05-09T16:08:38.085Z,16.50
2019-05-09T16:11:32.662Z,16.60
2019-05-09T16:14:28.675Z,16.60
2019-05-09T16:17:08.925Z,16.70
2019-05-09T16:19:42.773Z,17.00
2019-05-09T16:22:39.162Z,16.90
2019-05-09T16:25:11.627Z,16.90
2019-05-09T16:27:48.479Z,17.10
2019-05-09T16:30:21.817Z,17.30
2019-05-09T16:32:58.628Z,17.40
2019-05-09T16:35:29.408Z,17.40
2019-05-09T16:38:09.612Z,17.40
2019-05-09T16:40:40.412Z,17.30
2019-05-09T16:43:17.593Z,17.00
2019-05-09T16:46:08.844Z,17.00
2019-05-09T16:48:39.735Z,16.90
2019-05-09T16:51:11.171Z,16.90
2019-05-09T16:53:41.511Z,16.90
2019-05-09T16:56:20.274Z,16.90
2019-05-09T16:58:57.846Z,16.80
2019-05-09T17:01:31.422Z,16.80
2019-05-09T17:04:02.709Z,16.70
2019-05-09T17:06:40.872Z,16.80
2019-05-09T17:09:21.243Z,16.90
2019-05-09T17:11:51.776Z,17.00
2019-05-09T17:14:23.223Z,17.00
2019-05-09T17:16:54.707Z,17.00
2019-05-09T17:19:28.260Z,17.10
2019-05-09T17:22:11.219Z,17.20
2019-05-09T17:25:03.666Z,17.20
2019-05-09T17:27:56.903Z,17.30
2019-05-09T17:30:28.619Z,17.40
2019-05-09T17:33:07.845Z,17.50
2019-05-09T17:35:58.207Z,17.60
2019-05-09T17:38:38.342Z,17.60
2019-05-09T17:41:28.412Z,17.50
2019-05-09T17:44:01.635Z,17.30
2019-05-09T17:46:43.110Z,17.20
2019-05-09T17:49:13.335Z,17.20
2019-05-09T17:51:44.232Z,17.20
2019-05-09T17:54:18.516Z,17.40
2019-05-09T17:56:48.842Z,17.50
2019-05-09T17:59:20.176Z,17.60
2019-05-09T18:01:57.985Z,17.50
2019-05-09T18:04:32.511Z,17.40
2019-05-09T18:07:18.014Z,17.30
2019-05-09T18:09:59.470Z,17.20
2019-05-09T18:12:40.688Z,17.20
2019-05-09T18:15:18.831Z,17.20
2019-05-09T18:17:54.587Z,17.20
2019-05-09T18:20:28.384Z,17.20
2019-05-09T18:23:17.933Z,17.20
2019-05-09T18:26:19.685Z,17.20
2019-05-09T18:28:49.664Z,17.10
2019-05-09T18:31:32.220Z,16.80
2019-05-09T18:34:03.484Z,15.90
2019-05-09T18:36:42.303Z,15.20
2019-05-09T18:39:13.731Z,14.70
2019-05-09T18:41:57.767Z,14.20
2019-05-09T18:44:37.596Z,13.80
2019-05-09T18:47:48.148Z,13.40
2019-05-09T18:50:23.029Z,13.00
2019-05-09T18:53:33.739Z,12.70
2019-05-09T18:56:03.720Z,12.50
2019-05-09T18:58:36.083Z,12.30
2019-05-09T19:01:14.191Z,12.10
2019-05-09T19:03:47.183Z,12.00
2019-05-09T19:06:18.830Z,12.00
2019-05-09T19:08:53.993Z,12.00
2019-05-09T19:11:28.303Z,11.80
2019-05-09T19:14:01.490Z,11.80
2019-05-09T19:17:03.096Z,11.80
2019-05-09T19:19:51.761Z,11.70
2019-05-09T19:22:25.572Z,11.70
2019-05-09T19:24:57.301Z,11.80
2019-05-09T19:27:28.687Z,11.70
2019-05-09T19:30:03.980Z,11.80
2019-05-09T19:32:40.318Z,11.90
2019-05-09T19:35:40.465Z,11.90
2019-05-09T19:38:10.364Z,12.00
2019-05-09T19:40:50.627Z,12.10
2019-05-09T19:43:26.213Z,12.20
2019-05-09T19:46:02.262Z,12.20
2019-05-09T19:48:33.981Z,12.20
2019-05-09T19:51:06.249Z,12.20
2019-05-09T19:53:40.665Z,12.20
2019-05-09T19:56:18.662Z,12.20
2019-05-09T19:59:01.756Z,12.30
2019-05-09T20:01:44.965Z,12.30
2019-05-09T20:04:23.369Z,12.30
2019-05-09T20:07:02.373Z,12.20
2019-05-09T20:09:51.817Z,12.30
2019-05-09T20:12:44.246Z,12.30
2019-05-09T20:15:15.225Z,12.30
2019-05-09T20:18:12.393Z,12.30
2019-05-09T20:20:40.749Z,12.30
2019-05-09T20:23:23.148Z,12.30
2019-05-09T20:26:40.686Z,12.40
2019-05-09T20:29:55.623Z,12.50
2019-05-09T20:32:39.312Z,12.50
2019-05-09T20:35:15.588Z,12.50
2019-05-09T20:37:46.686Z,12.50
2019-05-09T20:40:18.459Z,12.50
2019-05-09T20:42:56.827Z,12.50
2019-05-09T20:45:27.037Z,12.50
2019-05-09T20:48:19.615Z,12.50
2019-05-09T20:50:53.157Z,12.60
2019-05-09T20:53:26.728Z,12.70
2019-05-09T20:55:59.695Z,12.70
2019-05-09T20:58:33.492Z,12.50
2019-05-09T21:01:03.848Z,12.40
2019-05-09T21:03:34.583Z,12.20
2019-05-09T21:06:04.879Z,12.10
2019-05-09T21:08:40.467Z,12.00
2019-05-09T21:11:15.094Z,11.90
2019-05-09T21:13:48.595Z,11.90
2019-05-09T21:16:38.998Z,11.90
2019-05-09T21:19:26.520Z,12.00
2019-05-09T21:22:00.969Z,12.00
2019-05-09T21:24:36.395Z,12.10
2019-05-09T21:27:18.408Z,12.10
2019-05-09T21:29:50.212Z,12.10
2019-05-09T21:32:24.031Z,12.10
2019-05-09T21:35:01.472Z,12.20
2019-05-09T21:37:36.147Z,12.20
2019-05-09T21:40:15.302Z,12.10
2019-05-09T21:42:54.267Z,12.20
2019-05-09T21:45:53.596Z,12.20
2019-05-09T21:48:26.648Z,12.20
2019-05-09T21:51:15.794Z,12.20
2019-05-09T21:53:58.425Z,12.20
2019-05-09T21:57:18.762Z,12.30
2019-05-09T21:59:58.137Z,12.30
2019-05-09T22:02:33.560Z,12.40
2019-05-09T22:05:15.364Z,12.40
2019-05-09T22:08:10.597Z,12.40
2019-05-09T22:10:39.509Z,12.30
2019-05-09T22:13:15.478Z,12.30
2019-05-09T22:15:46.259Z,12.30
2019-05-09T22:18:17.575Z,12.30
2019-05-09T22:20:48.003Z,12.20
2019-05-09T22:23:18.589Z,12.20
2019-05-09T22:25:55.909Z,12.20
2019-05-09T22:28:32.976Z,12.20
2019-05-09T22:31:14.527Z,12.10
2019-05-09T22:33:45.082Z,12.10
2019-05-09T22:36:15.440Z,12.10
2019-05-09T22:38:45.666Z,12.00
2019-05-09T22:41:18.340Z,12.00
2019-05-09T22:43:48.818Z,11.90
2019-05-09T22:46:19.018Z,11.90
2019-05-09T22:48:50.277Z,11.90
2019-05-09T22:51:27.346Z,11.90
2019-05-09T22:54:11.581Z,11.80
2019-05-09T22:56:30.745Z,11.80
2019-05-09T22:59:05.678Z,11.70
2019-05-09T23:01:35.554Z,11.60
2019-05-09T23:04:05.250Z,11.50
2019-05-09T23:06:38.752Z,11.50
2019-05-09T23:09:13.611Z,11.50
2019-05-09T23:12:03.936Z,11.40
2019-05-09T23:14:34.448Z,11.30
2019-05-09T23:17:07.546Z,11.30
2019-05-09T23:19:37.600Z,11.20
2019-05-09T23:22:08.238Z,11.20
2019-05-09T23:24:38.540Z,11.10
2019-05-09T23:27:10.993Z,11.10
2019-05-09T23:29:40.828Z,11.00
2019-05-09T23:32:29.865Z,11.00
2019-05-09T23:34:59.764Z,11.00
2019-05-09T23:37:30.100Z,11.00
2019-05-09T23:39:59.843Z,11.00
2019-05-09T23:42:30.644Z,11.00
2019-05-09T23:45:01.160Z,11.00
2019-05-09T23:47:32.143Z,11.00
2019-05-09T23:50:02.269Z,11.10
2019-05-09T23:52:32.279Z,11.10
2019-05-09T23:55:19.801Z,11.10
2019-05-09T23:58:07.953Z,11.10
